Time;durP1;ratioP1;P1;durP2;ratioP2;P2;SDS_P1;SDS_P2;PMS_P1;PMS_P2;Temp;Humidity;BMP_temperature;BMP_pressure;BME280_temperature;BME280_humidity;BME280_pressure;Samples;Min_cycle;Max_cycle;Signal;HPM_P1;HPM_P2
2022/08/12 00:42:53;;;;;;;3.25;1.92;;;;;;;-145.69;64.66;71263.09;5093968;28;20228;-79
2022/08/12 00:45:20;;;;;;;2.00;1.50;;;;;;;-145.69;65.94;71281.00;5103266;28;20197;-78
2022/08/12 00:47:49;;;;;;;8.03;2.00;;;;;;;-145.69;66.56;71290.97;5116896;28;20236;-80
2022/08/12 00:50:18;;;;;;;3.60;1.70;;;;;;;-145.69;66.41;71279.03;5116891;27;20258;-79
2022/08/12 00:52:45;;;;;;;2.42;1.90;;;;;;;-145.69;65.70;71294.94;5117093;28;20205;-78
2022/08/12 00:55:12;;;;;;;5.18;1.90;;;;;;;-145.69;66.89;71302.91;5117046;28;20201;-78
2022/08/12 00:57:43;;;;;;;3.67;1.60;;;;;;;-145.69;67.50;71306.88;5101019;28;20198;-79
2022/08/12 01:00:13;;;;;;;3.85;1.63;;;;;;;-145.69;67.16;71286.97;5096247;28;20202;-79
2022/08/12 01:02:45;;;;;;;2.17;1.67;;;;;;;-145.69;67.15;71302.91;5096506;28;20599;-78
2022/08/12 01:13:31;;;;;;;3.87;1.70;;;;;;;-145.69;68.38;71312.84;5116619;28;20239;-78
2022/08/12 01:15:59;;;;;;;3.17;1.80;;;;;;;-145.69;70.16;71298.94;5116631;28;20291;-80
2022/08/12 01:18:29;;;;;;;5.93;2.20;;;;;;;-145.69;70.07;71294.94;5116357;28;20201;-79
2022/08/12 01:21:10;;;;;;;11.77;1.80;;;;;;;-145.69;67.00;71275.03;5106646;28;20652;-78
2022/08/12 01:24:04;;;;;;;5.25;1.83;;;;;;;-145.69;67.97;71281.00;5096059;28;20202;-79
2022/08/12 01:26:33;;;;;;;6.17;1.83;;;;;;;-145.69;68.82;71273.06;5095682;28;20202;-79
2022/08/12 01:29:02;;;;;;;4.88;1.85;;;;;;;-145.69;66.96;71271.06;5095522;28;20226;-79
2022/08/12 01:31:29;;;;;;;4.13;2.00;;;;;;;-145.69;66.71;71271.06;5112949;28;20281;-79
2022/08/12 01:34:03;;;;;;;4.25;1.80;;;;;;;-145.69;67.66;71288.97;5115419;28;20200;-78
2022/08/12 01:36:35;;;;;;;2.90;1.63;;;;;;;-145.69;67.86;71290.97;5116007;28;20235;-77
2022/08/12 01:39:03;;;;;;;3.15;1.58;;;;;;;-145.69;66.63;71269.06;5116248;28;20201;-79
2022/08/12 01:41:35;;;;;;;5.10;1.92;;;;;;;-145.69;68.07;71290.97;5099138;28;20201;-78
2022/08/12 01:44:02;;;;;;;1.70;1.38;;;;;;;-145.69;67.44;71292.94;5096023;28;20259;-78
2022/08/12 01:46:43;;;;;;;2.83;1.85;;;;;;;-145.69;67.38;71298.94;5095712;28;20718;-78
2022/08/12 01:49:26;;;;;;;2.63;1.80;;;;;;;-145.69;68.98;71294.94;5095577;28;20233;-78
2022/08/12 01:52:07;;;;;;;2.72;2.08;;;;;;;-145.69;69.31;71298.94;5095412;28;20448;-78
2022/08/12 01:54:38;;;;;;;2.27;1.80;;;;;;;-145.69;67.99;71294.94;5105106;28;20196;-78
2022/08/12 01:57:13;;;;;;;4.05;1.70;;;;;;;-145.69;67.60;71285.00;5115966;28;20208;-78
2022/08/12 01:59:49;;;;;;;8.75;1.88;;;;;;;-145.69;69.06;71290.97;5115884;28;20192;-78
2022/08/12 02:02:17;;;;;;;4.93;2.07;;;;;;;-145.69;68.44;71290.97;5097883;28;20198;-78
2022/08/12 02:13:55;;;;;;;6.37;1.80;;;;;;;-145.69;76.16;71324.78;5115380;28;20216;-78
2022/08/12 02:16:35;;;;;;;2.97;1.70;;;;;;;-145.69;73.01;71318.81;5115471;27;20201;-79
2022/08/12 02:19:17;;;;;;;3.23;1.60;;;;;;;-145.69;75.63;71324.78;5115368;28;20208;-80
2022/08/12 02:21:50;;;;;;;2.27;2.00;;;;;;;-145.69;72.98;71326.78;5115280;28;20667;-78
2022/08/12 02:24:20;;;;;;;3.00;1.70;;;;;;;-145.69;73.73;71356.63;5100383;27;20198;-79
2022/08/12 02:26:48;;;;;;;3.30;2.10;;;;;;;-145.69;80.30;71350.66;5094999;28;20205;-79
2022/08/12 02:29:17;;;;;;;3.23;1.93;;;;;;;-145.69;82.46;71376.53;5094541;28;20238;-78
2022/08/12 02:31:45;;;;;;;2.57;2.07;;;;;;;-145.69;80.11;71398.41;5094555;28;20654;-78
2022/08/12 02:34:14;;;;;;;3.70;1.87;;;;;;;-145.69;78.61;71390.47;5094732;28;20238;-78
2022/08/12 02:36:41;;;;;;;3.60;2.00;;;;;;;-145.69;82.87;71400.41;5109775;28;20225;-78
2022/08/12 02:39:09;;;;;;;3.10;1.90;;;;;;;-145.69;85.77;71396.44;5111167;28;20190;-78
2022/08/12 02:41:38;;;;;;;3.40;2.07;;;;;;;-145.69;83.86;71396.44;5094139;28;20194;-76
2022/08/12 02:44:08;;;;;;;4.80;2.07;;;;;;;-145.69;85.50;71410.34;5093580;28;20209;-79
2022/08/12 02:46:37;;;;;;;4.93;2.30;;;;;;;-145.69;85.92;71410.34;5094178;28;20202;-79
2022/08/12 02:49:09;;;;;;;2.73;2.03;;;;;;;-145.69;89.03;71422.28;5083988;28;20230;-78
2022/08/12 02:51:39;;;;;;;7.73;2.43;;;;;;;-145.69;90.23;71434.22;5114759;28;20220;-78
2022/08/12 02:54:07;;;;;;;3.53;2.20;;;;;;;-145.69;89.92;71454.13;5114690;28;20292;-78
2022/08/12 02:56:39;;;;;;;5.87;1.97;;;;;;;-145.69;85.48;71450.16;5114262;28;20205;-78
2022/08/12 02:59:10;;;;;;;3.33;2.07;;;;;;;-145.69;85.22;71456.13;5114670;28;20250;-77
2022/08/12 03:01:45;;;;;;;3.07;1.90;;;;;;;-145.69;82.85;71436.22;5108281;28;20274;-77
2022/08/12 03:04:18;;;;;;;5.77;2.57;;;;;;;-145.69;80.25;71434.22;5093908;28;20230;-77
2022/08/12 03:06:51;;;;;;;3.07;1.87;;;;;;;-145.69;80.20;71406.38;5093779;28;20209;-80
2022/08/12 03:09:19;;;;;;;3.20;1.90;;;;;;;-145.69;80.49;71418.31;5094313;28;20230;-78
2022/08/12 03:11:51;;;;;;;2.90;1.87;;;;;;;-145.69;79.36;71410.34;5093864;28;20209;-76
2022/08/12 03:14:21;;;;;;;5.03;2.50;;;;;;;-145.69;80.77;71426.28;5107825;28;20203;-77
2022/08/12 03:16:56;;;;;;;2.67;2.00;;;;;;;-145.69;80.64;71426.28;5114174;28;20205;-77
2022/08/12 03:19:24;;;;;;;2.93;1.87;;;;;;;-145.69;81.79;71446.16;5113865;28;20294;-80
2022/08/12 03:21:54;;;;;;;2.73;1.93;;;;;;;-145.69;80.32;71424.28;5114385;28;20233;-78
2022/08/12 03:24:26;;;;;;;6.20;2.00;;;;;;;-145.69;79.95;71420.31;5114074;28;20669;-79
2022/08/12 03:26:54;;;;;;;5.37;2.00;;;;;;;-145.69;78.72;71408.38;5095468;28;20668;-77
2022/08/12 03:29:26;;;;;;;6.43;2.17;;;;;;;-145.69;79.72;71412.34;5093610;28;20261;-78
2022/08/12 03:31:59;;;;;;;6.00;2.30;;;;;;;-145.69;80.64;71426.28;5093340;28;20338;-78
2022/08/12 03:34:28;;;;;;;3.33;1.90;;;;;;;-145.69;80.27;71418.31;5093636;28;20290;-78
2022/08/12 03:36:57;;;;;;;2.90;1.77;;;;;;;-145.69;80.47;71432.25;5095457;28;20198;-78
2022/08/12 03:39:39;;;;;;;9.93;2.30;;;;;;;-145.69;81.62;71430.25;5113357;28;20246;-78
2022/08/12 03:42:16;;;;;;;2.57;2.07;;;;;;;-145.69;81.57;71434.22;5113670;28;20208;-78
2022/08/12 04:01:24;;;;;;;2.83;1.90;;;;;;;-145.69;79.31;71374.53;5093051;28;20201;-78
2022/08/12 04:03:52;;;;;;;3.57;2.03;;;;;;;-145.69;78.60;71366.56;5111977;28;20225;-79
2022/08/12 04:06:21;;;;;;;8.20;2.30;;;;;;;-145.69;79.19;71372.53;5113337;28;20200;-78
2022/08/12 04:08:50;;;;;;;3.80;1.93;;;;;;;-145.69;79.71;71372.53;5113371;28;20256;-78
2022/08/12 04:14:10;;;;;;;4.73;2.47;;;;;;;-145.69;78.38;71350.66;5109881;28;20212;-77
2022/08/12 04:16:37;;;;;;;4.82;2.33;;;;;;;-145.69;78.55;71358.63;5092156;28;20443;-76
2022/08/12 04:19:06;;;;;;;5.93;2.20;;;;;;;-145.69;78.33;71358.63;5111207;28;20201;-79
2022/08/12 04:21:35;;;;;;;3.77;2.40;;;;;;;-145.69;79.68;71374.53;5113442;28;20197;-78
2022/08/12 04:24:01;;;;;;;2.57;2.20;;;;;;;-145.69;80.79;71398.41;5113204;28;20200;-77
2022/08/12 04:26:28;;;;;;;3.57;2.13;;;;;;;-145.69;79.84;71372.53;5113386;28;20197;-80
2022/08/12 04:28:57;;;;;;;3.67;2.20;;;;;;;-145.69;78.23;71346.69;5094996;28;20217;-77
2022/08/12 04:31:30;;;;;;;4.53;2.47;;;;;;;-145.69;78.97;71360.59;5092941;28;20198;-79
2022/08/12 04:33:58;;;;;;;7.10;2.10;;;;;;;-145.69;79.51;71374.53;5092986;28;20572;-78
2022/08/12 04:36:26;;;;;;;3.80;2.30;;;;;;;-145.69;80.90;71382.50;5092411;28;20224;-78
2022/08/12 04:38:53;;;;;;;5.63;2.30;;;;;;;-145.69;81.72;71386.47;5095410;28;20201;-78
2022/08/12 04:41:21;;;;;;;7.73;2.50;;;;;;;-145.69;80.56;71370.56;5113076;28;20674;-78
2022/08/12 04:43:48;;;;;;;3.40;2.20;;;;;;;-145.69;81.47;71372.53;5113227;28;20334;-78
2022/08/12 04:46:14;;;;;;;3.67;2.30;;;;;;;-145.69;80.49;71370.56;5112974;28;20205;-77
2022/08/12 04:48:41;;;;;;;5.53;2.37;;;;;;;-145.69;80.96;71362.59;5082074;28;20609;-78
2022/08/12 04:51:08;;;;;;;4.47;2.30;;;;;;;-145.69;81.13;71378.50;5085458;28;20194;-78
2022/08/12 04:53:36;;;;;;;3.77;2.40;;;;;;;-145.69;81.43;71386.47;5112914;28;20213;-78
2022/08/12 04:56:03;;;;;;;6.43;2.17;;;;;;;-145.69;80.81;71358.63;5113083;28;20205;-76
2022/08/12 04:58:29;;;;;;;4.43;2.70;;;;;;;-145.69;81.47;71362.59;5113118;28;20551;-77
2022/08/12 05:00:56;;;;;;;4.27;2.53;;;;;;;-145.69;83.62;71382.50;5113058;28;20201;-77
2022/08/12 05:03:25;;;;;;;6.37;2.37;;;;;;;-145.69;81.82;71364.59;5103720;28;20194;-77
2022/08/12 05:05:52;;;;;;;4.60;2.17;;;;;;;-145.69;82.38;71348.66;5092159;28;20631;-77
2022/08/12 05:08:18;;;;;;;5.47;2.37;;;;;;;-145.69;83.60;71374.53;5093931;28;20198;-77
2022/08/12 05:10:48;;;;;;;3.37;2.20;;;;;;;-145.69;83.73;71380.50;5096238;28;20229;-77
2022/08/12 05:13:18;;;;;;;4.07;2.30;;;;;;;-145.69;84.80;71378.50;5096634;28;20237;-78
2022/08/12 05:15:45;;;;;;;4.67;2.60;;;;;;;-145.69;85.80;71384.47;5106595;28;20204;-77
2022/08/12 05:18:13;;;;;;;3.27;2.50;;;;;;;-145.69;83.01;71368.56;5118369;28;20204;-77
2022/08/12 05:20:42;;;;;;;3.60;2.60;;;;;;;-145.69;82.04;71356.63;5117956;28;20651;-76
2022/08/12 05:23:10;;;;;;;8.57;2.57;;;;;;;-145.69;86.06;71364.59;5116792;28;20731;-76
2022/08/12 05:25:42;;;;;;;5.83;2.57;;;;;;;-145.69;88.36;71374.53;5116513;28;20656;-76
2022/08/12 05:28:11;;;;;;;4.23;2.53;;;;;;;-145.69;86.48;71374.53;5106143;27;20200;-76
2022/08/12 05:30:38;;;;;;;6.00;2.63;;;;;;;-145.69;87.66;71376.53;5095777;28;20257;-79
2022/08/12 05:33:06;;;;;;;3.37;2.07;;;;;;;-145.69;86.70;71380.50;5096002;28;20202;-78
2022/08/12 05:35:35;;;;;;;4.07;2.30;;;;;;;-145.69;87.40;71372.53;5096004;28;20232;-79
2022/08/12 05:40:47;;;;;;;5.10;2.30;;;;;;;-145.69;89.02;71366.56;5112237;28;20278;-77
2022/08/12 05:43:15;;;;;;;8.77;2.50;;;;;;;-145.69;89.14;71342.69;5115949;28;20209;-78
2022/08/12 05:45:41;;;;;;;3.17;2.23;;;;;;;-145.69;88.75;71344.69;5115882;28;20205;-77
2022/08/12 05:48:07;;;;;;;4.53;2.53;;;;;;;-145.69;90.68;71334.75;5116163;28;20544;-77
2022/08/12 05:50:34;;;;;;;4.17;2.40;;;;;;;-145.69;89.75;71332.75;5115767;28;20229;-77
2022/08/12 05:53:01;;;;;;;9.80;2.67;;;;;;;-145.69;88.90;71326.78;5098508;28;20289;-80
2022/08/12 05:55:28;;;;;;;4.57;2.20;;;;;;;-145.69;89.04;71330.75;5095063;28;20205;-79
2022/08/12 05:57:55;;;;;;;4.70;2.42;;;;;;;-145.69;88.24;71322.81;5095563;28;20206;-77
2022/08/12 06:00:24;;;;;;;5.63;2.42;;;;;;;-145.69;88.62;71308.88;5095391;28;20676;-79
2022/08/12 06:02:52;;;;;;;5.67;1.90;;;;;;;-145.69;85.02;71283.00;5095212;28;20611;-78
2022/08/12 06:05:19;;;;;;;3.42;2.45;;;;;;;-145.69;87.41;71267.09;5113068;28;20233;-81
2022/08/12 06:07:46;;;;;;;5.05;2.38;;;;;;;-145.69;84.42;71255.16;5115640;27;20201;-79
2022/08/12 06:10:13;;;;;;;3.53;2.30;;;;;;;-145.69;84.46;71243.22;5115184;28;20279;-79
2022/08/12 06:12:41;;;;;;;4.18;2.25;;;;;;;-145.69;83.96;71229.28;5106586;27;20222;-80
2022/08/12 06:15:08;;;;;;;5.95;2.50;;;;;;;-145.69;81.98;71203.41;5094717;28;20212;-80
2022/08/12 06:17:36;;;;;;;5.28;2.80;;;;;;;-145.69;85.87;71199.44;5095040;28;20673;-79
2022/08/12 06:20:03;;;;;;;4.78;2.30;;;;;;;-145.69;81.47;71179.53;5094807;28;20206;-78
2022/08/12 06:22:30;;;;;;;3.25;2.17;;;;;;;-145.69;79.89;71143.72;5099118;28;20194;-78
2022/08/12 06:24:59;;;;;;;3.53;1.95;;;;;;;-145.69;69.80;71097.97;5115262;28;20220;-78
2022/08/12 06:27:25;;;;;;;4.03;1.90;;;;;;;-145.69;73.10;71064.13;5115279;28;20560;-78
2022/08/12 06:29:52;;;;;;;4.93;2.38;;;;;;;-145.69;67.40;71018.38;5115135;28;20228;-76
2022/08/12 06:32:18;;;;;;;4.55;2.10;;;;;;;-145.69;64.59;70996.47;5114869;28;20609;-77
2022/08/12 06:34:46;;;;;;;2.92;1.83;;;;;;;-145.69;67.70;70970.63;5106363;28;20194;-78
2022/08/12 06:37:12;;;;;;;2.88;2.05;;;;;;;-145.69;61.98;70938.78;5094526;28;20209;-78
2022/08/12 06:39:39;;;;;;;6.65;1.70;;;;;;;-145.69;62.99;70916.91;5094625;28;20202;-78
2022/08/12 06:44:50;;;;;;;4.95;1.90;;;;;;;-145.69;56.88;70881.09;5094559;28;20201;-78
2022/08/12 06:47:18;;;;;;;6.43;1.70;;;;;;;-145.69;59.49;70857.22;5107576;28;20276;-77
2022/08/12 06:49:47;;;;;;;7.97;1.92;;;;;;;-145.69;55.54;70837.31;5114615;28;20225;-77
2022/08/12 06:52:13;;;;;;;4.55;1.75;;;;;;;-145.69;56.95;70817.41;5114887;28;20292;-79
2022/08/12 06:54:43;;;;;;;5.18;2.13;;;;;;;-145.69;54.12;70793.53;5114673;28;20202;-78
2022/08/12 06:57:09;;;;;;;4.30;1.90;;;;;;;-145.69;53.85;70773.66;5111822;28;20679;-78
2022/08/12 06:59:39;;;;;;;2.60;1.65;;;;;;;-145.69;51.63;70755.75;5097482;28;20637;-78
2022/08/12 07:02:07;;;;;;;4.70;1.90;;;;;;;-145.69;51.69;70747.78;5094244;28;20194;-79
2022/08/12 07:04:37;;;;;;;4.28;1.70;;;;;;;-145.69;51.62;70721.91;5093785;28;20230;-77
2022/08/12 07:07:05;;;;;;;4.45;1.65;;;;;;;-145.69;49.23;70709.97;5088984;28;20802;-76
2022/08/12 07:09:32;;;;;;;3.45;1.60;;;;;;;-145.69;51.71;70700.03;5092891;28;20695;-78
2022/08/12 07:11:58;;;;;;;1.90;1.50;;;;;;;-145.69;49.27;70694.06;5112414;28;20197;-79
2022/08/12 07:14:25;;;;;;;4.75;1.60;;;;;;;-145.69;49.40;70694.06;5114075;28;20205;-79
2022/08/12 07:16:52;;;;;;;7.32;1.80;;;;;;;-145.69;49.19;70672.19;5113949;28;20292;-77
2022/08/12 07:19:19;;;;;;;5.65;2.13;;;;;;;-145.69;49.70;70654.28;5114417;28;20243;-78
2022/08/12 07:21:46;;;;;;;5.15;1.70;;;;;;;-145.69;47.55;70660.25;5112636;28;20208;-77
2022/08/12 07:24:14;;;;;;;3.97;1.40;;;;;;;-145.69;47.48;70654.28;5093468;28;20193;-80
2022/08/12 07:26:41;;;;;;;3.85;1.30;;;;;;;-145.69;47.32;70654.28;5093860;28;20221;-76
2022/08/12 07:29:09;;;;;;;5.25;1.60;;;;;;;-145.69;46.28;70630.41;5093659;28;20721;-80
2022/08/12 07:31:36;;;;;;;8.30;2.03;;;;;;;-145.69;46.58;70650.28;5092887;28;20312;-77
2022/08/12 07:34:03;;;;;;;3.83;1.67;;;;;;;-145.69;46.26;70632.38;5095151;28;20194;-78
2022/08/12 07:36:29;;;;;;;3.60;1.75;;;;;;;-145.69;48.03;70606.53;5114115;28;20209;-78
2022/08/12 07:38:56;;;;;;;4.72;1.80;;;;;;;-145.69;45.87;70600.56;5113666;28;20552;-78
2022/08/12 07:41:26;;;;;;;3.00;1.60;;;;;;;-145.69;44.88;70604.53;5113598;28;20205;-75
2022/08/12 07:43:56;;;;;;;2.33;1.40;;;;;;;-145.69;46.28;70602.56;5113737;28;20197;-77
2022/08/12 07:46:25;;;;;;;7.85;1.77;;;;;;;-145.69;45.29;70590.63;5107926;28;20233;-76
2022/08/12 07:48:53;;;;;;;3.92;1.80;;;;;;;-145.69;45.55;70590.63;5093568;28;20205;-78
2022/08/12 07:51:21;;;;;;;7.07;1.90;;;;;;;-145.69;46.47;70586.63;5093065;28;20226;-78
2022/08/12 07:53:48;;;;;;;2.75;1.80;;;;;;;-145.69;45.31;70576.69;5093432;28;20198;-79
2022/08/12 07:56:16;;;;;;;1.83;1.45;;;;;;;-145.69;45.30;70558.78;5093154;28;20284;-78
2022/08/12 07:58:45;;;;;;;3.30;1.50;;;;;;;-145.69;45.29;70542.88;5101723;28;20201;-79
2022/08/12 08:01:14;;;;;;;3.00;1.50;;;;;;;-145.69;44.29;70538.88;5112994;28;20245;-79
2022/08/12 08:04:54;;;;;;;5.43;2.10;;;;;;;-145.69;44.43;70542.88;5113523;28;20225;-79
2022/08/12 08:06:30;;;;;;;1.92;1.50;;;;;;;-145.69;43.43;70534.91;5101243;28;20198;-79
2022/08/12 08:08:56;;;;;;;4.72;1.73;;;;;;;-145.69;43.34;70507.06;5100274;28;20250;-76
2022/08/12 08:14:09;;;;;;;2.17;1.50;;;;;;;-145.69;42.08;70511.03;5113269;28;20204;-78
2022/08/12 08:16:36;;;;;;;6.95;1.98;;;;;;;-145.69;44.41;70459.31;5113391;28;20292;-75
2022/08/12 08:19:03;;;;;;;4.68;1.52;;;;;;;-145.69;42.31;70447.38;5105353;28;20222;-80
2022/08/12 08:21:32;;;;;;;3.83;1.50;;;;;;;-145.69;41.54;70455.34;5092988;28;20271;-77
2022/08/12 08:24:17;;;;;;;1.95;1.40;;;;;;;-145.69;41.42;70467.28;5092997;28;20205;-77
2022/08/12 08:26:46;;;;;;;1.77;1.35;;;;;;;-145.69;42.00;70463.28;5093122;28;20237;-76
2022/08/12 08:29:15;;;;;;;2.65;1.30;;;;;;;-145.69;41.04;70449.38;5092068;28;20521;-78
2022/08/12 08:31:45;;;;;;;3.15;1.63;;;;;;;-145.69;40.05;70449.38;5081175;28;20217;-77
2022/08/12 08:34:12;;;;;;;3.22;1.50;;;;;;;-145.69;39.22;70447.38;5070352;28;20291;-77
2022/08/12 08:36:39;;;;;;;3.85;1.48;;;;;;;-145.69;39.08;70437.44;5072730;28;20209;-77
2022/08/12 08:39:06;;;;;;;2.33;1.40;;;;;;;-145.69;38.08;70471.25;5072617;28;20600;-78
2022/08/12 08:44:19;;;;;;;2.65;1.27;;;;;;;-145.69;39.07;70451.34;5117152;28;20195;-78
2022/08/12 08:46:46;;;;;;;6.03;1.58;;;;;;;-145.69;38.81;70431.47;5115282;28;20678;-79
2022/08/12 08:49:14;;;;;;;4.30;1.35;;;;;;;-145.69;38.18;70429.47;5115216;28;20193;-77
2022/08/12 08:51:41;;;;;;;4.50;1.60;;;;;;;-145.69;38.27;70427.47;5114606;28;20229;-80
2022/08/12 08:54:10;;;;;;;2.80;1.40;;;;;;;-145.69;37.93;70445.38;5094741;28;20216;-78
2022/08/12 08:56:43;;;;;;;7.15;1.48;;;;;;;-145.69;39.12;70447.38;5094504;28;20243;-75
2022/08/12 08:59:11;;;;;;;3.28;1.60;;;;;;;-145.69;38.53;70421.50;5095053;28;20240;-76
2022/08/12 09:01:39;;;;;;;6.10;1.45;;;;;;;-145.69;36.75;70401.63;5096014;28;20280;-76
2022/08/12 09:04:07;;;;;;;2.53;1.27;;;;;;;-145.69;37.71;70371.78;5102174;28;20778;-76
2022/08/12 09:06:34;;;;;;;5.88;1.75;;;;;;;-145.69;36.47;70399.63;5096095;27;20199;-76
2022/08/12 09:09:04;;;;;;;2.72;1.38;;;;;;;-145.69;35.58;70391.66;5075996;28;20218;-78
2022/08/12 09:14:14;;;;;;;5.97;1.40;;;;;;;-145.69;36.68;70387.69;5075991;28;20316;-78
2022/08/12 09:16:42;;;;;;;2.42;1.27;;;;;;;-145.69;36.24;70367.81;5101568;28;20197;-78
2022/08/12 09:19:12;;;;;;;3.60;1.38;;;;;;;-145.69;35.67;70395.66;5116684;27;20205;-80
2022/08/12 09:21:39;;;;;;;3.20;1.30;;;;;;;-145.69;35.81;70405.59;5116611;28;20251;-76
2022/08/12 09:24:06;;;;;;;3.08;1.23;;;;;;;-145.69;35.68;70417.53;5116400;28;20197;-77
2022/08/12 09:26:33;;;;;;;2.70;1.50;;;;;;;-145.69;36.11;70439.41;5116674;28;20207;-77
2022/08/12 09:29:00;;;;;;;3.22;1.30;;;;;;;-145.69;37.06;70403.59;5100620;28;20553;-76
2022/08/12 09:31:27;;;;;;;3.58;1.40;;;;;;;-145.69;35.33;70369.78;5095949;28;20593;-80
2022/08/12 09:33:54;;;;;;;2.45;1.10;;;;;;;-145.69;36.24;70357.84;5096244;28;20289;-78
2022/08/12 09:36:22;;;;;;;3.80;1.40;;;;;;;-145.69;35.34;70363.81;5095738;28;20201;-77
2022/08/12 09:38:49;;;;;;;4.15;1.45;;;;;;;-145.69;36.05;70379.72;5096025;28;20202;-77
2022/08/12 09:41:15;;;;;;;2.50;1.30;;;;;;;-145.69;36.50;70375.75;5111906;28;20435;-77
2022/08/12 09:46:27;;;;;;;4.93;1.27;;;;;;;-145.69;35.93;70339.94;5116079;28;20270;-77
2022/08/12 09:48:54;;;;;;;1.48;1.08;;;;;;;-145.69;35.00;70341.94;5115996;27;20205;-78
2022/08/12 09:51:21;;;;;;;3.60;1.48;;;;;;;-145.69;35.28;70335.97;5112619;28;20671;-75
2022/08/12 09:53:49;;;;;;;2.95;1.70;;;;;;;-145.69;35.50;70357.84;5100436;28;20210;-76
2022/08/12 09:56:16;;;;;;;2.38;1.10;;;;;;;-145.69;35.84;70371.78;5094859;28;20633;-77
2022/08/12 09:58:45;;;;;;;1.90;1.33;;;;;;;-145.69;35.34;70343.94;5093749;28;20244;-77
2022/08/12 10:01:12;;;;;;;2.10;1.23;;;;;;;-145.69;34.65;70322.03;5100028;28;20190;-79
2022/08/12 10:03:42;;;;;;;10.13;1.58;;;;;;;-145.69;35.30;70326.03;5099001;28;20207;-77
2022/08/12 10:06:10;;;;;;;1.92;1.20;;;;;;;-145.69;33.96;70296.19;5095231;28;20221;-77
2022/08/12 10:08:38;;;;;;;1.77;1.20;;;;;;;-145.69;34.93;70284.25;5095544;28;20244;-76
2022/08/12 10:14:02;;;;;;;2.15;1.40;;;;;;;-145.69;34.87;70292.19;5011838;28;20235;-77
2022/08/12 10:16:31;;;;;;;4.30;1.30;;;;;;;-145.69;34.50;70292.19;5059079;28;20203;-79
2022/08/12 10:19:00;;;;;;;1.98;1.30;;;;;;;-145.69;33.65;70306.13;5074891;28;20199;-82
2022/08/12 10:21:35;;;;;;;4.22;1.30;;;;;;;-145.69;34.69;70260.38;5074859;28;20209;-82
2022/08/12 10:24:03;;;;;;;2.45;1.20;;;;;;;-145.69;34.15;70284.25;5083064;28;20208;-77
2022/08/12 10:32:11;;;;;;;1.40;1.17;;;;;;;-145.69;34.26;70226.56;5078102;28;20304;-78
2022/08/12 10:34:38;;;;;;;2.45;1.20;;;;;;;-145.69;33.59;70208.66;5115071;28;20202;-78
2022/08/12 10:37:07;;;;;;;1.55;1.13;;;;;;;-145.69;34.68;70238.50;5099700;28;20285;-77
2022/08/12 10:39:36;;;;;;;2.22;1.27;;;;;;;-145.69;33.37;70218.59;5094910;28;20224;-79
2022/08/12 10:45:02;;;;;;;1.13;0.93;;;;;;;-145.69;33.10;70214.63;5069602;28;20221;-77
2022/08/12 10:47:30;;;;;;;3.00;1.20;;;;;;;-145.69;32.88;70228.53;5095079;28;20222;-80
2022/08/12 10:49:58;;;;;;;2.80;1.25;;;;;;;-145.69;33.08;70194.72;5114791;28;20198;-86
2022/08/12 10:52:29;;;;;;;2.03;1.40;;;;;;;-145.69;33.62;70202.69;5114826;28;20687;-79
2022/08/12 10:54:56;;;;;;;2.40;1.20;;;;;;;-145.69;33.33;70164.88;5114908;28;20251;-78
2022/08/12 10:57:25;;;;;;;5.68;1.60;;;;;;;-145.69;32.51;70168.88;5114685;28;20201;-80
2022/08/12 10:59:56;;;;;;;2.83;1.17;;;;;;;-145.69;33.36;70154.94;5112378;27;20221;-84
2022/08/12 11:02:24;;;;;;;2.20;1.48;;;;;;;-145.69;32.79;70148.97;5094415;28;20251;-79
2022/08/12 11:04:51;;;;;;;4.10;1.38;;;;;;;-145.69;33.31;70145.00;5107403;28;20579;-79
2022/08/12 11:07:17;;;;;;;7.97;1.38;;;;;;;-145.69;32.41;70180.81;5113927;28;20219;-79
2022/08/12 11:09:47;;;;;;;3.17;1.30;;;;;;;-145.69;32.71;70160.91;5114456;28;20197;-75
2022/08/12 11:12:14;;;;;;;3.22;1.40;;;;;;;-145.69;32.48;70156.94;5114300;28;20256;-82
2022/08/12 11:14:41;;;;;;;4.60;1.42;;;;;;;-145.69;32.58;70164.88;5102093;28;20202;-80
2022/08/12 11:17:11;;;;;;;2.78;1.23;;;;;;;-145.69;32.64;70180.81;5075983;28;20272;-81
2022/08/12 11:19:39;;;;;;;2.05;1.25;;;;;;;-145.69;33.44;70168.88;5072763;28;20249;-76
2022/08/12 11:22:07;;;;;;;2.60;1.45;;;;;;;-145.69;33.94;70141.03;5073613;28;20198;-79
2022/08/12 11:24:34;;;;;;;3.53;1.40;;;;;;;-145.69;32.09;70107.19;5073788;28;20256;-82
2022/08/12 11:27:05;;;;;;;4.05;1.30;;;;;;;-145.69;32.00;70101.25;5100708;28;20215;-82
2022/08/12 11:29:32;;;;;;;1.95;1.10;;;;;;;-145.69;33.97;70087.31;5114050;27;20655;-77
2022/08/12 11:31:59;;;;;;;2.15;1.50;;;;;;;-145.69;32.97;70073.38;5114040;28;20302;-78
2022/08/12 11:34:25;;;;;;;3.05;1.10;;;;;;;-145.69;32.21;70077.38;5114092;28;20682;-80
2022/08/12 11:36:54;;;;;;;3.88;1.40;;;;;;;-145.69;32.87;70075.38;5113953;28;20643;-81
2022/08/12 11:39:21;;;;;;;2.25;1.17;;;;;;;-145.69;32.87;70065.44;5096323;28;20194;-80
2022/08/12 11:41:48;;;;;;;5.90;1.38;;;;;;;-145.69;32.41;70035.59;5093596;28;20210;-76
2022/08/12 11:44:16;;;;;;;4.18;1.50;;;;;;;-145.69;33.08;69993.81;5093600;28;20201;-78
2022/08/12 11:46:43;;;;;;;6.00;1.52;;;;;;;-145.69;32.34;69997.78;5093595;28;20206;-77
2022/08/12 11:49:10;;;;;;;3.35;1.50;;;;;;;-145.69;32.85;70003.75;5092094;28;20735;-78
2022/08/12 11:51:38;;;;;;;4.63;1.50;;;;;;;-145.69;33.18;70005.75;5112933;28;20739;-79
2022/08/12 11:54:04;;;;;;;4.82;1.40;;;;;;;-145.69;33.20;69981.88;5113636;28;20205;-79
2022/08/12 11:56:31;;;;;;;3.30;1.20;;;;;;;-145.69;32.46;70001.78;5113772;28;20201;-80
2022/08/12 11:58:58;;;;;;;3.15;1.17;;;;;;;-145.69;31.99;70001.78;5113748;28;20560;-77
2022/08/12 12:01:26;;;;;;;5.15;1.30;;;;;;;-145.69;32.51;69965.97;5113154;28;20213;-77
2022/08/12 12:03:52;;;;;;;3.35;1.30;;;;;;;-145.69;32.09;69954.03;5092429;28;20533;-77
2022/08/12 12:06:20;;;;;;;1.48;1.27;;;;;;;-145.69;31.83;69962.00;5093140;28;20194;-79
2022/08/12 12:08:47;;;;;;;3.75;1.40;;;;;;;-145.69;31.48;69997.78;5093067;28;20279;-78
2022/08/12 12:11:14;;;;;;;3.20;1.10;;;;;;;-145.69;31.15;70017.69;5093210;28;20218;-81
2022/08/12 12:13:41;;;;;;;3.70;1.20;;;;;;;-145.69;31.50;70015.69;5094146;28;20198;-76
2022/08/12 12:16:08;;;;;;;1.35;1.10;;;;;;;-145.69;32.20;69975.91;5113707;28;20204;-79
2022/08/12 12:18:36;;;;;;;3.63;1.17;;;;;;;-145.69;32.18;69960.00;5112982;28;20230;-76
2022/08/12 12:21:04;;;;;;;6.80;1.20;;;;;;;-145.69;32.38;69914.25;5113148;28;20279;-77
2022/08/12 12:23:33;;;;;;;5.15;1.48;;;;;;;-145.69;32.78;69878.44;5113331;28;20677;-78
2022/08/12 12:26:00;;;;;;;2.35;1.30;;;;;;;-145.69;31.37;69888.41;5107854;28;20607;-77
2022/08/12 12:28:26;;;;;;;1.77;1.20;;;;;;;-145.69;31.65;69896.34;5093209;28;20215;-79
2022/08/12 12:30:53;;;;;;;6.28;1.20;;;;;;;-145.69;31.80;69862.53;5093121;28;20251;-76
2022/08/12 12:33:20;;;;;;;6.22;1.33;;;;;;;-145.69;33.32;69854.59;5092686;28;20205;-76
2022/08/12 12:35:48;;;;;;;2.05;1.10;;;;;;;-145.69;32.56;69832.69;5092663;28;20552;-76
2022/08/12 12:38:15;;;;;;;3.75;1.38;;;;;;;-145.69;31.24;69802.88;5096966;28;20682;-78
2022/08/12 12:40:43;;;;;;;4.93;1.40;;;;;;;-145.69;32.02;69782.97;5112162;28;20434;-79
2022/08/12 12:43:10;;;;;;;2.88;1.13;;;;;;;-145.69;31.42;69769.06;5112666;28;20447;-79
2022/08/12 12:45:41;;;;;;;2.70;1.00;;;;;;;-145.69;31.37;69832.69;5113260;28;20614;-82
2022/08/12 12:48:10;;;;;;;1.92;1.40;;;;;;;-145.69;32.46;69846.63;5113115;28;20655;-77
2022/08/12 12:50:38;;;;;;;7.05;1.48;;;;;;;-145.69;32.89;69846.63;5105472;28;20203;-78
2022/08/12 12:53:07;;;;;;;3.50;1.23;;;;;;;-145.69;32.04;69782.97;5092609;28;20618;-76
2022/08/12 12:55:36;;;;;;;2.38;1.25;;;;;;;-145.69;31.81;69765.06;5092727;28;20275;-77
2022/08/12 12:58:04;;;;;;;1.38;1.10;;;;;;;-145.69;29.99;69779.00;5092652;28;20241;-79
2022/08/12 13:00:32;;;;;;;2.05;0.98;;;;;;;-145.69;29.64;69794.91;5091981;28;20209;-78
2022/08/12 13:02:59;;;;;;;1.30;1.08;;;;;;;-145.69;31.11;69725.28;5100643;28;20189;-77
2022/08/12 13:05:28;;;;;;;1.48;1.13;;;;;;;-145.69;31.61;69665.63;5096820;28;20245;-77
2022/08/12 13:07:56;;;;;;;4.13;1.70;;;;;;;-145.69;30.30;69639.75;5092628;28;20202;-76
2022/08/12 13:10:28;;;;;;;1.33;0.90;;;;;;;-145.69;30.55;69564.19;5092539;28;20194;-78